Terminal Aerodrome Forecast
Issued by NWS Sterling, VA

Current Version | Previous Version | Graphics & Text | Print | Product List | Glossary On
Versions: 1 2 3 4 5 6 7 8 9 10 11 12 13 14 15 16 17 18 19 20 21 22 23 24 25
559
FTUS41 KLWX 052321
TAFDCA
TAF
KDCA 052321Z 0600/0624 35005KT P6SM BKN240
     FM061000 04005KT P6SM OVC130
     FM061500 08007KT 4SM -RA BR OVC025
     FM061600 08007KT 3/4SM -RA BR OVC004
     FM062300 04008KT 3/4SM -RA BR OVC003=

USA.gov is the U.S. government's official web portal to all federal, state and local government web resources and services.